Time;durP1;ratioP1;P1;durP2;ratioP2;P2;SDS_P1;SDS_P2;PMS_P1;PMS_P2;Temp;Humidity;BMP_temperature;BMP_pressure;BME280_temperature;BME280_humidity;BME280_pressure;Samples;Min_cycle;Max_cycle;Signal;HPM_P1;HPM_P2
2022/06/01 00:01:02;;;;;;;12.70;10.83;;;13.00;79.50;;;;;;5055083;28;20227;-83
2022/06/01 00:03:34;;;;;;;11.77;10.57;;;13.00;79.80;;;;;;5065487;28;20454;-85
2022/06/01 00:06:00;;;;;;;11.10;10.00;;;13.00;79.70;;;;;;5064916;28;20176;-86
2022/06/01 00:08:26;;;;;;;13.15;11.52;;;13.00;79.70;;;;;;5063821;28;20177;-85
2022/06/01 00:10:53;;;;;;;11.15;10.05;;;13.00;79.40;;;;;;5065019;28;20201;-85
2022/06/01 00:13:20;;;;;;;13.98;11.65;;;13.00;79.20;;;;;;5063758;28;20212;-86
2022/06/01 00:15:46;;;;;;;12.10;9.85;;;13.00;78.60;;;;;;5066070;28;20181;-85
2022/06/01 00:18:12;;;;;;;15.55;12.13;;;13.00;78.60;;;;;;5056947;28;20178;-86
2022/06/01 00:20:40;;;;;;;11.97;10.43;;;13.00;78.60;;;;;;5051264;28;20203;-85
2022/06/01 00:23:06;;;;;;;11.20;9.07;;;12.90;78.50;;;;;;5065776;28;20431;-86
2022/06/01 00:25:32;;;;;;;14.75;10.65;;;13.00;78.40;;;;;;5060890;28;20185;-84
2022/06/01 00:27:58;;;;;;;10.27;8.60;;;12.90;78.40;;;;;;5062926;28;20184;-87
2022/06/01 00:30:24;;;;;;;15.63;9.43;;;12.90;78.40;;;;;;5061477;28;20583;-86
2022/06/01 00:32:50;;;;;;;11.38;8.50;;;12.80;78.10;;;;;;5061766;28;20208;-84
2022/06/01 00:35:19;;;;;;;11.18;9.93;;;12.80;78.30;;;;;;5062118;28;20178;-86
2022/06/01 00:37:45;;;;;;;10.27;9.18;;;12.80;78.10;;;;;;5061925;28;20177;-86
2022/06/01 00:40:14;;;;;;;11.73;9.30;;;12.80;78.20;;;;;;5061478;28;20197;-86
2022/06/01 00:42:43;;;;;;;9.77;8.77;;;12.80;78.40;;;;;;5053007;28;20334;-86
2022/06/01 00:45:12;;;;;;;14.10;9.63;;;12.70;78.00;;;;;;5059030;28;20179;-86
2022/06/01 00:47:39;;;;;;;9.32;8.23;;;12.70;77.50;;;;;;5058564;28;20173;-86
2022/06/01 00:50:26;;;;;;;15.00;9.05;;;12.70;77.80;;;;;;5058765;28;20750;-86
2022/06/01 00:52:59;;;;;;;9.18;8.25;;;12.70;77.70;;;;;;5059476;28;20189;-86
2022/06/01 00:55:31;;;;;;;10.48;8.65;;;12.60;77.60;;;;;;5056618;28;20182;-88
2022/06/01 00:58:07;;;;;;;11.02;8.25;;;12.60;77.40;;;;;;5062660;28;20252;-86
2022/06/01 01:00:35;;;;;;;10.85;8.00;;;12.60;77.00;;;;;;5059599;28;20897;-86
2022/06/01 01:03:06;;;;;;;10.38;9.00;;;12.60;76.70;;;;;;5063116;28;20185;-85
2022/06/01 01:05:33;;;;;;;9.52;8.60;;;12.60;76.70;;;;;;5063106;28;20196;-85
2022/06/01 01:08:02;;;;;;;10.02;8.93;;;12.60;76.60;;;;;;5063511;28;20254;-85
2022/06/01 01:10:29;;;;;;;10.73;8.43;;;12.60;76.90;;;;;;5061747;28;20193;-85
2022/06/01 01:12:56;;;;;;;14.57;8.43;;;12.60;77.10;;;;;;5065188;28;20254;-86
2022/06/01 01:15:35;;;;;;;11.32;7.75;;;12.60;77.10;;;;;;5065280;28;20557;-86
2022/06/01 01:18:08;;;;;;;9.38;7.90;;;12.60;77.10;;;;;;5064522;28;20169;-85
2022/06/01 01:20:42;;;;;;;10.25;9.10;;;12.60;77.30;;;;;;5064590;28;20201;-85
2022/06/01 01:23:31;;;;;;;11.13;8.55;;;12.50;77.40;;;;;;5066156;28;20181;-85
2022/06/01 01:25:57;;;;;;;10.38;8.02;;;12.50;77.60;;;;;;5066091;28;20213;-85
2022/06/01 01:28:23;;;;;;;12.85;9.25;;;12.50;77.60;;;;;;5066189;28;20227;-85
2022/06/01 01:30:49;;;;;;;13.10;9.18;;;12.50;77.60;;;;;;5066656;28;20303;-84
2022/06/01 01:33:20;;;;;;;10.67;8.10;;;12.50;77.80;;;;;;5067107;28;20201;-88
2022/06/01 01:35:52;;;;;;;12.48;8.48;;;12.40;77.80;;;;;;5068517;28;20407;-87
2022/06/01 01:38:24;;;;;;;9.90;8.40;;;12.40;77.90;;;;;;5070584;28;20185;-87
2022/06/01 01:41:04;;;;;;;10.57;7.45;;;12.40;78.00;;;;;;5072980;28;20208;-86
2022/06/01 01:43:34;;;;;;;14.05;7.15;;;12.40;77.90;;;;;;5073269;28;20296;-85
2022/06/01 01:45:59;;;;;;;8.27;6.25;;;12.40;77.80;;;;;;5074589;28;20189;-86
2022/06/01 01:48:25;;;;;;;8.17;5.73;;;12.40;77.50;;;;;;5065094;28;20181;-85
2022/06/01 01:50:51;;;;;;;7.60;6.10;;;12.30;77.60;;;;;;5069185;28;20564;-87
2022/06/01 01:53:16;;;;;;;7.50;5.73;;;12.30;77.70;;;;;;5065260;28;20458;-85
2022/06/01 01:56:02;;;;;;;6.03;5.40;;;12.30;77.80;;;;;;5064990;28;20180;-85
2022/06/01 01:58:50;;;;;;;6.63;5.50;;;12.30;77.90;;;;;;5064191;28;20181;-85
2022/06/01 02:01:23;;;;;;;6.15;5.30;;;12.30;77.90;;;;;;5064665;28;20204;-85
2022/06/01 02:04:00;;;;;;;11.60;5.13;;;12.30;78.20;;;;;;5064529;28;20181;-86
2022/06/01 02:06:43;;;;;;;8.80;4.60;;;12.20;78.00;;;;;;5063362;28;20185;-85
2022/06/01 02:09:12;;;;;;;8.77;5.13;;;12.20;77.50;;;;;;5061150;28;20177;-85
2022/06/01 02:14:33;;;;;;;8.60;5.05;;;12.20;77.70;;;;;;5063550;28;20268;-85
2022/06/01 02:17:03;;;;;;;8.60;4.03;;;12.20;77.70;;;;;;5063396;28;20299;-84
2022/06/01 02:19:38;;;;;;;6.78;4.07;;;12.20;77.70;;;;;;5062647;28;20227;-84
2022/06/01 02:22:05;;;;;;;5.65;3.72;;;12.10;77.50;;;;;;5061517;28;20608;-86
2022/06/01 02:24:31;;;;;;;5.85;4.10;;;12.20;77.20;;;;;;5061913;28;20188;-84
2022/06/01 02:26:59;;;;;;;9.10;3.92;;;12.10;77.20;;;;;;5061500;28;20672;-85
2022/06/01 02:29:38;;;;;;;4.68;4.20;;;12.20;77.40;;;;;;5061232;28;20183;-85
2022/06/01 02:32:05;;;;;;;7.78;5.20;;;12.10;77.50;;;;;;5062620;28;20172;-85
2022/06/01 02:34:33;;;;;;;6.40;3.67;;;12.10;77.50;;;;;;5064622;28;20264;-85
2022/06/01 02:37:04;;;;;;;6.80;3.53;;;12.10;77.60;;;;;;5065373;28;20169;-85
2022/06/01 02:39:31;;;;;;;6.65;4.10;;;12.00;77.80;;;;;;5063712;28;20308;-85
2022/06/01 02:42:31;;;;;;;4.10;3.70;;;12.00;77.90;;;;;;5064209;28;20158;-85
2022/06/01 02:45:15;;;;;;;8.93;3.95;;;12.00;78.10;;;;;;5064835;28;20200;-85
2022/06/01 02:47:43;;;;;;;6.30;3.78;;;12.00;78.10;;;;;;5062748;28;20181;-85
2022/06/01 02:50:13;;;;;;;6.68;3.92;;;11.90;78.00;;;;;;5060910;28;20205;-85
2022/06/01 02:52:40;;;;;;;4.70;3.80;;;11.90;77.70;;;;;;5058625;28;20193;-85
2022/06/01 02:55:08;;;;;;;5.63;4.28;;;11.90;78.00;;;;;;5060119;28;20182;-84
2022/06/01 02:57:38;;;;;;;7.53;4.32;;;11.90;78.20;;;;;;5060960;28;20209;-85
2022/06/01 03:00:08;;;;;;;6.50;4.10;;;11.90;78.50;;;;;;5062019;28;20197;-84
2022/06/01 03:02:40;;;;;;;6.80;4.55;;;11.90;78.50;;;;;;5061881;28;20233;-84
2022/06/01 03:05:06;;;;;;;6.68;3.92;;;11.90;78.50;;;;;;5054608;28;20207;-86
2022/06/01 03:07:32;;;;;;;5.38;4.57;;;11.90;78.40;;;;;;5061711;28;20208;-85
2022/06/01 03:09:58;;;;;;;8.73;4.27;;;11.90;78.50;;;;;;5060716;28;20581;-87
2022/06/01 03:12:23;;;;;;;9.37;4.30;;;11.90;78.20;;;;;;5061754;28;20420;-86
2022/06/01 03:14:49;;;;;;;6.70;5.10;;;11.90;78.10;;;;;;5060719;28;20228;-87
2022/06/01 03:17:15;;;;;;;6.03;4.60;;;11.90;78.00;;;;;;5060956;28;20177;-86
2022/06/01 03:19:40;;;;;;;5.10;4.30;;;11.80;77.90;;;;;;5061336;28;20212;-86
2022/06/01 03:22:06;;;;;;;5.87;3.50;;;11.90;78.40;;;;;;5061651;28;20177;-84
2022/06/01 03:24:32;;;;;;;7.50;4.47;;;11.90;78.50;;;;;;5061703;28;20193;-86
2022/06/01 03:26:58;;;;;;;9.20;3.60;;;11.90;78.70;;;;;;5062605;28;20195;-86
2022/06/01 03:29:27;;;;;;;5.78;4.18;;;11.80;78.50;;;;;;5062255;28;20204;-85
2022/06/01 03:31:53;;;;;;;8.95;4.55;;;11.80;78.40;;;;;;5061958;28;20186;-85
2022/06/01 03:34:19;;;;;;;8.45;4.68;;;11.80;78.60;;;;;;5052153;28;20201;-85
2022/06/01 03:36:46;;;;;;;5.50;4.53;;;11.80;78.50;;;;;;5061245;28;20185;-86
2022/06/01 03:39:11;;;;;;;6.05;4.28;;;11.70;78.50;;;;;;5060550;28;20219;-85
2022/06/01 03:41:37;;;;;;;6.70;4.83;;;11.80;78.50;;;;;;5061167;28;20200;-85
2022/06/01 03:46:48;;;;;;;10.23;5.43;;;11.70;78.80;;;;;;5063179;28;20458;-85
2022/06/01 03:49:13;;;;;;;6.03;4.93;;;11.80;79.00;;;;;;5061287;28;20193;-85
2022/06/01 03:51:39;;;;;;;5.97;5.13;;;11.80;79.00;;;;;;5058665;28;20226;-86
2022/06/01 03:54:06;;;;;;;9.60;5.43;;;11.80;79.10;;;;;;5061367;28;20243;-87
2022/06/01 03:56:32;;;;;;;5.00;4.40;;;11.80;79.10;;;;;;5060357;28;20216;-85
2022/06/01 03:58:58;;;;;;;4.93;4.40;;;11.80;79.10;;;;;;5060053;28;20177;-85
2022/06/01 04:01:24;;;;;;;5.67;5.03;;;11.80;79.00;;;;;;5059901;28;20663;-85
2022/06/01 04:03:50;;;;;;;7.70;5.63;;;11.80;79.00;;;;;;5060380;28;20415;-84
2022/06/01 04:06:16;;;;;;;7.03;5.10;;;11.80;78.90;;;;;;5061141;28;20427;-85
2022/06/01 04:08:42;;;;;;;5.83;4.20;;;11.80;78.60;;;;;;5059833;28;20427;-86
2022/06/01 04:11:07;;;;;;;6.10;5.13;;;11.90;78.50;;;;;;5064726;28;20233;-86
2022/06/01 04:13:33;;;;;;;7.40;4.83;;;11.90;78.20;;;;;;5061810;28;20205;-86
2022/06/01 04:16:00;;;;;;;6.47;4.20;;;11.90;78.20;;;;;;5061586;28;20197;-85
2022/06/01 04:18:26;;;;;;;6.43;4.83;;;11.90;78.40;;;;;;5060389;28;20215;-85
2022/06/01 04:20:53;;;;;;;9.37;6.50;;;11.90;78.40;;;;;;5060484;28;20197;-85
2022/06/01 04:23:19;;;;;;;7.82;4.80;;;11.90;78.80;;;;;;5027477;28;20177;-85
2022/06/01 04:25:45;;;;;;;9.75;5.07;;;11.90;78.80;;;;;;5060469;28;20763;-86
2022/06/01 04:28:11;;;;;;;7.50;4.90;;;11.90;79.00;;;;;;5053449;28;20177;-85
2022/06/01 04:30:37;;;;;;;10.32;6.03;;;11.90;78.90;;;;;;5060149;28;20231;-85
2022/06/01 04:33:04;;;;;;;8.55;5.45;;;12.00;79.10;;;;;;5061478;28;20296;-87
2022/06/01 04:35:29;;;;;;;7.35;4.80;;;12.00;78.90;;;;;;5063150;28;20241;-86
2022/06/01 04:38:12;;;;;;;7.97;5.00;;;12.00;78.90;;;;;;5062724;28;20548;-87
2022/06/01 04:40:46;;;;;;;7.75;4.78;;;12.00;79.10;;;;;;5060935;28;20688;-86
2022/06/01 04:43:14;;;;;;;9.82;4.93;;;12.10;79.20;;;;;;5059070;28;20194;-85
2022/06/01 04:45:41;;;;;;;7.68;4.55;;;12.10;79.00;;;;;;5058458;28;20284;-84
2022/06/01 04:48:06;;;;;;;6.22;4.90;;;12.20;78.90;;;;;;5061601;28;20208;-85
2022/06/01 04:50:33;;;;;;;12.13;5.93;;;12.20;78.40;;;;;;5061102;28;20274;-86
2022/06/01 04:53:00;;;;;;;6.47;5.45;;;12.20;78.60;;;;;;5061074;28;20181;-85
2022/06/01 04:55:26;;;;;;;7.18;5.20;;;12.20;78.70;;;;;;5059496;28;20618;-85
2022/06/01 04:57:51;;;;;;;5.17;4.00;;;12.40;78.80;;;;;;5059593;28;20177;-84
2022/06/01 05:00:18;;;;;;;6.63;5.37;;;12.50;78.60;;;;;;5061128;28;20189;-84
2022/06/01 05:02:44;;;;;;;9.13;5.07;;;12.70;78.10;;;;;;5061098;28;20616;-85
2022/06/01 05:05:09;;;;;;;9.17;5.40;;;12.90;77.80;;;;;;5061870;28;20231;-85
2022/06/01 05:07:35;;;;;;;6.50;5.00;;;13.20;77.10;;;;;;5061174;28;20188;-87
2022/06/01 05:10:03;;;;;;;7.60;5.50;;;13.40;75.80;;;;;;5063343;28;20440;-85
2022/06/01 05:12:29;;;;;;;9.43;4.63;;;13.70;74.90;;;;;;5062098;28;20276;-85
2022/06/01 05:14:54;;;;;;;12.03;5.00;;;14.10;73.10;;;;;;5061398;28;20255;-86
2022/06/01 05:17:20;;;;;;;6.93;4.63;;;14.20;71.70;;;;;;5040669;28;20186;-84
2022/06/01 05:19:46;;;;;;;5.70;4.60;;;14.50;71.00;;;;;;5061357;28;20834;-86
2022/06/01 05:22:11;;;;;;;5.93;5.13;;;15.00;69.90;;;;;;5063197;28;20177;-85
2022/06/01 05:24:37;;;;;;;11.57;5.77;;;15.40;67.50;;;;;;5063320;28;20518;-85
2022/06/01 05:27:03;;;;;;;7.93;4.87;;;15.50;67.00;;;;;;5065322;28;20185;-86
2022/06/01 05:29:29;;;;;;;9.00;4.43;;;15.70;65.80;;;;;;5066424;28;20181;-85
2022/06/01 05:31:54;;;;;;;8.77;4.27;;;15.80;65.20;;;;;;5068499;28;20470;-85
2022/06/01 05:34:21;;;;;;;8.80;4.63;;;15.90;64.80;;;;;;5071168;28;20205;-85
2022/06/01 05:36:47;;;;;;;6.25;4.28;;;15.90;64.10;;;;;;5071421;28;20416;-85
2022/06/01 05:39:13;;;;;;;6.25;4.30;;;15.90;64.60;;;;;;5066596;28;20177;-84
2022/06/01 05:41:40;;;;;;;5.30;3.70;;;16.00;64.50;;;;;;5067723;28;20208;-86
2022/06/01 05:44:06;;;;;;;8.95;4.15;;;16.30;64.00;;;;;;5071510;28;20205;-85
2022/06/01 05:46:35;;;;;;;9.38;3.80;;;16.60;62.40;;;;;;5073844;28;20192;-84
2022/06/01 05:49:04;;;;;;;6.88;4.00;;;16.80;61.00;;;;;;5077820;28;20234;-86
2022/06/01 05:51:30;;;;;;;6.63;3.92;;;17.10;60.90;;;;;;5078325;28;20205;-84
2022/06/01 05:54:04;;;;;;;13.93;4.83;;;17.50;60.00;;;;;;5079176;28;20299;-85
2022/06/01 05:56:30;;;;;;;7.75;4.35;;;18.00;59.00;;;;;;5078521;28;20189;-83
2022/06/01 05:59:06;;;;;;;17.20;5.82;;;18.40;57.70;;;;;;5078700;28;20192;-84
2022/06/01 06:01:32;;;;;;;9.23;4.25;;;18.00;57.60;;;;;;5078149;28;20208;-85
2022/06/01 06:04:00;;;;;;;6.90;5.23;;;18.10;57.50;;;;;;5078714;28;20181;-85
2022/06/01 06:06:26;;;;;;;5.50;4.63;;;17.80;58.50;;;;;;5079070;28;20200;-86
2022/06/01 06:09:02;;;;;;;10.73;6.40;;;18.20;57.60;;;;;;5070111;28;20438;-84
2022/06/01 06:11:31;;;;;;;8.30;5.07;;;18.00;58.30;;;;;;5063654;28;20224;-85
2022/06/01 06:13:58;;;;;;;6.47;4.40;;;18.30;57.30;;;;;;5063924;28;20220;-86
2022/06/01 06:16:24;;;;;;;5.65;4.18;;;18.10;57.90;;;;;;5063232;28;20169;-87
2022/06/01 06:18:51;;;;;;;4.90;3.50;;;18.30;57.60;;;;;;5062873;28;20215;-85
2022/06/01 06:21:17;;;;;;;8.67;4.27;;;18.50;57.40;;;;;;5054899;28;20439;-85
2022/06/01 06:23:43;;;;;;;6.90;5.10;;;18.90;56.20;;;;;;5060034;28;20424;-85
2022/06/01 06:26:09;;;;;;;7.47;5.13;;;19.10;55.30;;;;;;5064136;28;20462;-84
2022/06/01 06:28:35;;;;;;;13.57;6.37;;;18.80;55.60;;;;;;5064077;28;20419;-86
2022/06/01 06:31:02;;;;;;;11.57;6.00;;;18.30;57.20;;;;;;5062905;28;20474;-83
2022/06/01 06:33:28;;;;;;;5.77;5.20;;;18.10;58.30;;;;;;5064684;28;20200;-85
2022/06/01 06:36:03;;;;;;;9.20;5.30;;;18.80;56.60;;;;;;5064548;28;20514;-87
2022/06/01 06:38:31;;;;;;;12.63;6.10;;;19.40;54.80;;;;;;5066925;28;20181;-84
2022/06/01 06:40:58;;;;;;;7.07;5.13;;;19.70;53.80;;;;;;5065868;28;20452;-84
2022/06/01 06:43:26;;;;;;;8.40;6.60;;;19.60;53.40;;;;;;5066178;28;20424;-86
2022/06/01 06:45:57;;;;;;;9.40;5.40;;;19.60;54.00;;;;;;5070031;28;20446;-83
2022/06/01 06:48:23;;;;;;;9.77;6.30;;;19.60;53.40;;;;;;5070502;28;20441;-85
2022/06/01 06:50:49;;;;;;;5.90;4.50;;;19.40;54.70;;;;;;5063778;28;20479;-86
2022/06/01 06:53:16;;;;;;;5.40;4.90;;;19.70;55.30;;;;;;5046856;28;20232;-86
2022/06/01 06:55:41;;;;;;;7.63;5.17;;;19.80;55.20;;;;;;5062249;28;20419;-87
2022/06/01 06:58:09;;;;;;;9.30;5.70;;;20.10;53.50;;;;;;5063998;28;20431;-86
2022/06/01 07:00:35;;;;;;;11.03;6.20;;;19.60;53.90;;;;;;5063933;28;20257;-85
2022/06/01 07:03:01;;;;;;;8.50;5.80;;;19.10;55.40;;;;;;5064885;28;20416;-85
2022/06/01 07:08:18;;;;;;;10.07;7.30;;;18.70;57.30;;;;;;5065550;28;20184;-84
2022/06/01 07:10:44;;;;;;;9.63;7.18;;;18.30;58.80;;;;;;5063673;28;20672;-84
2022/06/01 07:13:10;;;;;;;11.13;8.40;;;18.20;59.20;;;;;;5063424;28;20235;-86
2022/06/01 07:15:36;;;;;;;8.55;6.45;;;18.00;60.00;;;;;;5063057;28;20447;-85
2022/06/01 07:18:06;;;;;;;7.70;6.60;;;18.00;60.70;;;;;;5063968;28;20177;-84
2022/06/01 07:20:32;;;;;;;9.50;7.50;;;18.50;59.90;;;;;;5064315;28;20208;-85
2022/06/01 07:22:58;;;;;;;10.60;6.10;;;18.90;57.90;;;;;;5064405;28;20292;-85
2022/06/01 07:25:28;;;;;;;9.53;6.97;;;18.60;59.00;;;;;;5066569;28;20447;-86
2022/06/01 07:27:54;;;;;;;8.97;6.70;;;19.00;57.40;;;;;;5064928;28;20416;-83
2022/06/01 07:30:20;;;;;;;10.90;8.25;;;19.10;58.00;;;;;;5066875;28;20471;-84
2022/06/01 07:32:47;;;;;;;14.00;7.70;;;18.70;58.20;;;;;;5069350;28;20208;-84
2022/06/01 07:35:15;;;;;;;9.23;7.13;;;18.40;59.20;;;;;;5073805;28;20479;-84
2022/06/01 07:43:12;;;;;;;12.40;6.70;;;18.40;60.30;;;;;;5058189;28;20299;-84
2022/06/01 07:45:41;;;;;;;12.00;7.65;;;18.30;59.70;;;;;;5057273;28;20511;-83
2022/06/01 07:48:08;;;;;;;7.57;6.38;;;18.20;60.00;;;;;;5056731;28;20220;-83
2022/06/01 07:50:35;;;;;;;13.10;9.15;;;18.20;60.50;;;;;;5057625;28;20206;-83
2022/06/01 07:53:03;;;;;;;9.60;6.10;;;18.10;61.10;;;;;;5057660;28;20170;-83
2022/06/01 07:55:29;;;;;;;7.95;6.13;;;18.20;61.10;;;;;;5057702;28;20155;-83
2022/06/01 07:57:55;;;;;;;10.95;5.90;;;18.30;61.00;;;;;;5053298;28;20190;-85
2022/06/01 08:00:21;;;;;;;12.90;6.87;;;18.30;60.70;;;;;;5043136;28;20212;-84
2022/06/01 08:02:47;;;;;;;7.78;6.30;;;17.90;60.10;;;;;;5044188;28;20174;-86
2022/06/01 08:05:17;;;;;;;7.63;6.93;;;17.60;60.10;;;;;;5042073;28;20177;-84
2022/06/01 08:07:43;;;;;;;9.05;6.18;;;17.60;60.90;;;;;;5042673;28;20172;-85
2022/06/01 08:10:11;;;;;;;10.73;7.50;;;17.50;61.50;;;;;;5043561;28;20198;-84
2022/06/01 08:15:21;;;;;;;10.48;6.53;;;17.60;61.80;;;;;;5044459;28;20177;-84
2022/06/01 08:17:47;;;;;;;10.80;5.87;;;17.80;61.00;;;;;;5043390;28;20182;-84
2022/06/01 08:20:17;;;;;;;9.55;7.18;;;17.90;60.10;;;;;;5043703;28;20436;-84
2022/06/01 08:22:43;;;;;;;12.93;6.20;;;18.00;59.00;;;;;;5047151;28;20182;-83
2022/06/01 08:25:11;;;;;;;9.70;6.07;;;17.80;58.10;;;;;;5043832;28;20184;-85
2022/06/01 08:27:37;;;;;;;7.13;5.55;;;17.80;59.00;;;;;;5061062;28;20223;-83
2022/06/01 08:30:04;;;;;;;7.30;6.27;;;18.10;58.80;;;;;;5060307;28;20217;-85
2022/06/01 08:32:30;;;;;;;9.35;6.63;;;18.50;58.00;;;;;;5065211;28;20455;-83
2022/06/01 08:34:56;;;;;;;5.93;5.25;;;18.30;58.70;;;;;;5062271;28;20205;-84
2022/06/01 08:37:22;;;;;;;7.00;6.30;;;18.40;58.90;;;;;;5058024;28;20181;-83
2022/06/01 08:39:48;;;;;;;10.03;5.37;;;18.40;58.00;;;;;;5056245;28;20197;-83
2022/06/01 08:42:17;;;;;;;7.25;6.20;;;18.30;57.90;;;;;;5055228;28;20415;-83
2022/06/01 08:44:46;;;;;;;7.80;6.03;;;18.30;57.90;;;;;;5056544;28;20271;-83
2022/06/01 08:47:31;;;;;;;8.40;6.25;;;18.10;57.90;;;;;;5055457;28;20173;-87
2022/06/01 08:50:00;;;;;;;12.98;6.10;;;18.00;58.20;;;;;;5056601;28;20196;-84
2022/06/01 08:52:29;;;;;;;8.25;7.25;;;17.90;59.10;;;;;;5055214;28;20670;-84
2022/06/01 08:54:58;;;;;;;15.23;8.23;;;17.90;59.10;;;;;;5055552;28;20213;-84
2022/06/01 08:57:55;;;;;;;7.03;6.32;;;18.10;59.50;;;;;;5054858;28;20173;-83
2022/06/01 09:00:23;;;;;;;11.07;6.45;;;18.00;58.40;;;;;;5054618;28;20201;-82
2022/06/01 09:03:38;;;;;;;9.70;7.78;;;18.10;58.30;;;;;;5056284;28;20169;-83
2022/06/01 09:06:11;;;;;;;7.97;5.88;;;17.90;58.20;;;;;;5046225;28;20249;-83
2022/06/01 09:08:51;;;;;;;9.75;6.30;;;17.90;58.10;;;;;;5055092;28;20318;-83
2022/06/01 09:11:25;;;;;;;10.05;6.97;;;17.90;57.20;;;;;;5056160;28;20208;-84
2022/06/01 09:14:02;;;;;;;5.93;5.28;;;17.90;55.80;;;;;;5056489;28;20275;-85
2022/06/01 09:16:43;;;;;;;6.22;5.22;;;17.90;56.40;;;;;;5054571;28;20165;-85
2022/06/01 09:19:16;;;;;;;11.32;6.82;;;18.40;56.00;;;;;;5057154;28;20173;-84
2022/06/01 09:24:36;;;;;;;8.07;7.22;;;18.40;55.40;;;;;;5060015;28;20199;-82
2022/06/01 09:27:03;;;;;;;12.30;8.50;;;18.30;55.40;;;;;;5060058;28;20244;-83
2022/06/01 09:29:32;;;;;;;11.40;8.98;;;18.20;55.30;;;;;;5061096;28;20582;-84
2022/06/01 09:32:12;;;;;;;11.60;8.38;;;18.20;54.00;;;;;;5059000;28;20212;-85
2022/06/01 09:34:47;;;;;;;15.30;8.95;;;17.90;54.70;;;;;;5040876;28;20209;-84
2022/06/01 09:37:27;;;;;;;10.73;9.63;;;17.90;55.20;;;;;;5038013;28;20209;-86
2022/06/01 09:40:03;;;;;;;7.90;7.10;;;17.80;54.50;;;;;;5049993;28;20197;-86
2022/06/01 09:42:39;;;;;;;7.60;6.50;;;17.90;53.50;;;;;;5057655;28;20204;-84
2022/06/01 09:45:34;;;;;;;6.78;5.50;;;18.00;53.30;;;;;;5057627;28;20185;-82
2022/06/01 09:48:21;;;;;;;7.07;6.38;;;18.00;53.50;;;;;;5057820;28;20584;-84
2022/06/01 09:51:10;;;;;;;9.50;8.50;;;18.00;54.30;;;;;;5058022;28;20280;-84
2022/06/01 09:54:00;;;;;;;9.25;8.45;;;17.90;53.20;;;;;;5059134;28;20240;-83
2022/06/01 09:56:33;;;;;;;9.63;8.70;;;17.80;53.40;;;;;;5051141;28;20261;-83
2022/06/01 10:07:21;;;;;;;11.60;10.02;;;17.50;54.50;;;;;;5062079;28;20181;-82
2022/06/01 10:09:59;;;;;;;10.88;9.73;;;17.30;55.10;;;;;;5046254;28;20205;-84
2022/06/01 10:12:44;;;;;;;10.40;9.38;;;17.30;56.10;;;;;;5064027;28;20188;-84
2022/06/01 10:15:36;;;;;;;9.07;8.27;;;17.70;54.90;;;;;;5063667;28;20205;-84
2022/06/01 10:18:23;;;;;;;11.52;9.90;;;17.60;54.10;;;;;;5061889;28;20307;-84
2022/06/01 10:20:57;;;;;;;8.85;6.28;;;17.60;53.30;;;;;;5057410;28;20201;-83
2022/06/01 10:23:42;;;;;;;5.95;4.95;;;17.80;52.00;;;;;;5056898;28;20227;-83
2022/06/01 10:26:31;;;;;;;7.70;6.90;;;17.80;52.10;;;;;;5038662;28;20700;-83
2022/06/01 10:29:14;;;;;;;6.20;5.60;;;17.80;52.60;;;;;;5045031;28;20694;-84
2022/06/01 10:31:50;;;;;;;6.00;5.25;;;18.00;52.50;;;;;;5058012;28;20235;-84
2022/06/01 10:34:29;;;;;;;5.60;5.10;;;18.40;52.50;;;;;;5039906;28;20194;-85
2022/06/01 10:37:25;;;;;;;6.15;4.63;;;18.50;50.60;;;;;;5026005;28;20316;-84
2022/06/01 10:40:24;;;;;;;4.60;4.15;;;18.80;50.50;;;;;;5045148;28;20197;-84
2022/06/01 10:43:17;;;;;;;4.68;3.70;;;19.10;49.40;;;;;;5046600;28;20185;-86
2022/06/01 10:46:00;;;;;;;6.50;4.10;;;19.00;48.70;;;;;;5056105;28;20181;-84
2022/06/01 10:48:36;;;;;;;6.38;2.95;;;18.80;48.50;;;;;;5055490;28;20184;-83
2022/06/01 10:51:29;;;;;;;5.32;3.50;;;18.50;47.10;;;;;;5056454;28;20197;-84
2022/06/01 10:54:23;;;;;;;2.97;2.78;;;18.20;47.90;;;;;;5055684;28;20216;-84
2022/06/01 10:56:49;;;;;;;4.47;2.25;;;18.10;49.50;;;;;;5058033;28;20236;-83
2022/06/01 10:59:16;;;;;;;6.68;2.78;;;18.00;48.80;;;;;;5056742;28;20177;-84
2022/06/01 11:02:02;;;;;;;2.92;2.72;;;18.00;48.50;;;;;;5055646;28;20189;-84
2022/06/01 11:04:50;;;;;;;4.15;2.63;;;17.90;48.60;;;;;;5055752;28;20181;-85
2022/06/01 11:07:42;;;;;;;4.97;2.80;;;18.10;49.40;;;;;;5055070;28;20177;-83
2022/06/01 11:10:26;;;;;;;3.75;2.38;;;18.20;49.40;;;;;;5048940;28;20883;-84
2022/06/01 11:13:12;;;;;;;4.65;3.35;;;18.20;49.60;;;;;;5056337;28;20181;-82
2022/06/01 11:15:56;;;;;;;8.68;3.35;;;18.30;50.40;;;;;;5058414;28;20362;-84
2022/06/01 11:18:41;;;;;;;5.57;3.47;;;18.40;51.30;;;;;;5056368;28;20183;-85
2022/06/01 11:21:19;;;;;;;3.95;2.47;;;18.50;51.50;;;;;;5055993;28;20203;-86
2022/06/01 11:23:53;;;;;;;5.55;3.20;;;18.60;51.00;;;;;;5055385;28;20271;-84
2022/06/01 11:27:04;;;;;;;4.28;2.60;;;18.80;50.50;;;;;;5055561;28;20290;-87
2022/06/01 11:29:33;;;;;;;4.70;2.60;;;18.90;49.50;;;;;;4976519;28;20199;-84
2022/06/01 11:32:03;;;;;;;3.05;2.00;;;18.90;48.40;;;;;;4978733;28;20187;-85
2022/06/01 11:34:40;;;;;;;2.85;1.70;;;18.90;48.50;;;;;;5024344;28;20216;-84
2022/06/01 11:37:46;;;;;;;3.90;2.20;;;18.90;48.70;;;;;;5052609;28;20184;-86
2022/06/01 11:40:35;;;;;;;4.10;2.85;;;19.10;48.80;;;;;;5049243;28;20439;-85
2022/06/01 11:43:11;;;;;;;5.32;2.35;;;19.00;48.10;;;;;;5056783;28;20180;-84
2022/06/01 11:45:47;;;;;;;4.70;2.47;;;18.90;48.00;;;;;;5048192;28;20195;-83
2022/06/01 11:48:34;;;;;;;3.30;2.20;;;18.70;48.60;;;;;;5055852;28;20251;-85
2022/06/01 11:51:16;;;;;;;2.35;1.95;;;18.70;49.40;;;;;;5054159;28;20251;-84
2022/06/01 11:53:45;;;;;;;3.75;2.28;;;18.70;49.60;;;;;;5050103;28;20197;-87
2022/06/01 11:56:34;;;;;;;2.85;2.65;;;18.70;50.00;;;;;;5054155;28;20756;-83
2022/06/01 11:59:23;;;;;;;6.65;3.20;;;18.50;50.20;;;;;;5053849;28;20653;-83
2022/06/01 12:02:03;;;;;;;8.48;3.00;;;18.30;50.30;;;;;;5044763;28;20186;-84
2022/06/01 12:04:52;;;;;;;2.72;2.45;;;18.30;50.40;;;;;;5036673;28;20177;-84
2022/06/01 12:07:29;;;;;;;3.70;2.95;;;18.40;50.80;;;;;;5054494;28;20185;-84
2022/06/01 12:10:19;;;;;;;4.28;3.00;;;18.30;50.60;;;;;;5031840;28;20208;-84
2022/06/01 12:13:06;;;;;;;3.15;2.35;;;18.20;50.40;;;;;;5023294;28;20188;-84
2022/06/01 12:16:04;;;;;;;6.80;3.20;;;18.30;51.50;;;;;;5054251;28;20213;-83
2022/06/01 12:18:32;;;;;;;5.03;3.20;;;18.10;52.80;;;;;;5052230;28;20211;-86
2022/06/01 12:21:33;;;;;;;3.13;2.67;;;18.10;53.90;;;;;;5053569;28;20197;-84
2022/06/01 12:30:05;;;;;;;3.60;3.03;;;18.50;53.20;;;;;;5059324;28;20293;-84
2022/06/01 12:32:59;;;;;;;7.83;3.70;;;18.50;53.10;;;;;;5049367;28;20170;-85
2022/06/01 12:35:31;;;;;;;4.57;3.80;;;18.60;52.10;;;;;;5062887;28;20423;-83
2022/06/01 12:38:08;;;;;;;4.63;3.57;;;18.80;51.90;;;;;;5071686;28;20563;-84
2022/06/01 12:40:35;;;;;;;4.60;3.93;;;19.00;51.80;;;;;;5071555;28;20427;-84
2022/06/01 12:43:15;;;;;;;5.90;4.90;;;19.00;51.90;;;;;;5057050;28;20985;-85
2022/06/01 12:45:43;;;;;;;7.15;4.20;;;18.70;52.40;;;;;;5053466;28;20479;-85
2022/06/01 12:48:19;;;;;;;5.10;4.43;;;18.40;53.20;;;;;;5053594;28;20177;-84
2022/06/01 12:50:54;;;;;;;6.05;4.20;;;18.40;53.80;;;;;;5054897;28;20708;-85
2022/06/01 12:53:24;;;;;;;5.70;4.47;;;18.30;53.40;;;;;;5050751;28;20216;-83
2022/06/01 12:56:13;;;;;;;6.82;5.07;;;18.00;53.20;;;;;;5053589;28;20645;-84
2022/06/01 12:58:41;;;;;;;5.35;3.90;;;17.70;53.70;;;;;;5052094;28;20553;-86
2022/06/01 13:01:09;;;;;;;7.90;4.43;;;17.60;54.50;;;;;;5049862;28;20193;-85
2022/06/01 13:03:41;;;;;;;8.18;4.38;;;17.60;54.30;;;;;;5047729;28;20177;-86
2022/06/01 13:06:23;;;;;;;7.95;5.15;;;17.70;54.50;;;;;;5054004;28;20248;-84
2022/06/01 13:09:07;;;;;;;5.88;5.30;;;17.70;53.90;;;;;;5055237;28;20382;-83
2022/06/01 13:11:34;;;;;;;5.10;4.20;;;17.60;53.70;;;;;;5055599;28;20205;-85
2022/06/01 13:14:05;;;;;;;6.50;5.25;;;17.40;54.20;;;;;;5054551;28;20296;-83
2022/06/01 13:16:51;;;;;;;7.45;4.40;;;17.50;54.50;;;;;;5053886;28;20181;-84
2022/06/01 13:19:26;;;;;;;4.88;3.83;;;17.60;54.50;;;;;;5053489;28;20180;-84
2022/06/01 13:21:58;;;;;;;4.63;3.75;;;17.80;54.90;;;;;;5052929;28;20176;-83
2022/06/01 13:24:26;;;;;;;6.05;4.30;;;18.10;53.40;;;;;;5053261;28;20649;-83
2022/06/01 13:26:54;;;;;;;3.90;3.50;;;17.90;52.30;;;;;;5052814;28;20185;-84
2022/06/01 13:29:30;;;;;;;5.68;4.30;;;18.00;52.40;;;;;;5052920;28;20189;-84
2022/06/01 13:32:05;;;;;;;10.15;4.75;;;18.10;52.50;;;;;;5048930;28;20646;-84
2022/06/01 13:34:48;;;;;;;5.55;3.65;;;18.10;51.70;;;;;;5033840;28;20625;-84
2022/06/01 13:37:22;;;;;;;5.90;4.13;;;18.10;51.10;;;;;;5041701;28;20691;-83
2022/06/01 13:40:08;;;;;;;6.25;4.50;;;17.90;53.20;;;;;;5051843;28;20279;-85
2022/06/01 13:42:49;;;;;;;9.73;6.05;;;17.60;58.20;;;;;;5052781;28;20360;-86